createdAt,value
2023-02-22T00:01:07.451Z,5.74
2023-02-22T00:03:35.111Z,5.64
2023-02-22T00:06:05.078Z,5.57
2023-02-22T00:08:35.547Z,5.50
2023-02-22T00:11:08.535Z,5.40
2023-02-22T00:13:37.452Z,5.33
2023-02-22T00:16:05.547Z,5.25
2023-02-22T00:18:32.693Z,5.16
2023-02-22T00:21:01.223Z,5.21
2023-02-22T00:23:30.985Z,5.17
2023-02-22T00:25:59.982Z,5.17
2023-02-22T00:28:27.593Z,5.07
2023-02-22T00:30:55.500Z,5.02
2023-02-22T00:33:23.277Z,5.01
2023-02-22T00:35:50.475Z,5.05
2023-02-22T00:38:19.174Z,5.03
2023-02-22T00:40:46.600Z,4.98
2023-02-22T00:43:14.298Z,4.98
2023-02-22T00:45:42.279Z,4.99
2023-02-22T00:48:10.070Z,4.99
2023-02-22T00:50:37.659Z,5.03
2023-02-22T00:53:07.756Z,5.07
2023-02-22T00:55:37.803Z,5.11
2023-02-22T00:58:06.030Z,5.16
2023-02-22T01:00:39.380Z,5.16
2023-02-22T01:03:10.656Z,5.21
2023-02-22T01:05:40.754Z,5.24
2023-02-22T01:08:09.844Z,5.29
2023-02-22T01:10:38.348Z,5.34
2023-02-22T01:13:09.132Z,5.39
2023-02-22T01:15:39.483Z,5.38
2023-02-22T01:18:07.867Z,5.46
2023-02-22T01:20:35.307Z,5.37
2023-02-22T01:23:06.546Z,5.36
2023-02-22T01:25:35.294Z,5.33
2023-02-22T01:28:05.773Z,5.32
2023-02-22T01:30:35.315Z,5.32
2023-02-22T01:33:05.323Z,5.31
2023-02-22T01:35:36.061Z,5.22
2023-02-22T01:38:03.453Z,5.14
2023-02-22T01:40:36.453Z,5.08
2023-02-22T01:43:17.234Z,5.09
2023-02-22T01:45:55.456Z,5.11
2023-02-22T01:48:25.709Z,5.07
2023-02-22T01:51:03.708Z,5.09
2023-02-22T01:53:39.926Z,5.05
2023-02-22T01:56:07.859Z,4.98
2023-02-22T01:58:38.644Z,4.91
2023-02-22T02:01:07.807Z,4.88
2023-02-22T02:03:38.576Z,4.86
2023-02-22T02:06:12.343Z,4.78
2023-02-22T02:08:42.503Z,4.73
2023-02-22T02:11:10.261Z,4.67
2023-02-22T02:13:37.530Z,4.64
2023-02-22T02:16:05.256Z,4.58
2023-02-22T02:18:32.707Z,4.57
2023-02-22T02:21:55.633Z,4.52
2023-02-22T02:24:41.137Z,4.49
2023-02-22T02:27:11.906Z,4.41
2023-02-22T02:30:25.376Z,4.42
2023-02-22T02:32:56.384Z,4.40
2023-02-22T02:36:13.259Z,4.40
2023-02-22T02:38:44.040Z,4.44
2023-02-22T02:41:26.549Z,4.59
2023-02-22T02:44:02.869Z,4.61
2023-02-22T02:46:34.440Z,4.65
2023-02-22T02:49:06.933Z,4.74
2023-02-22T02:51:38.915Z,4.77
2023-02-22T02:54:07.466Z,4.88
2023-02-22T02:56:35.444Z,4.89
2023-02-22T02:59:02.474Z,4.96
2023-02-22T03:02:24.728Z,5.02
2023-02-22T03:05:10.203Z,5.08
2023-02-22T03:08:07.787Z,5.17
2023-02-22T03:11:17.466Z,5.25
2023-02-22T03:14:02.779Z,5.31
2023-02-22T03:16:50.325Z,5.39
2023-02-22T03:19:38.306Z,5.46
2023-02-22T03:22:16.440Z,5.54
2023-02-22T03:25:22.575Z,5.62
2023-02-22T03:28:02.373Z,5.72
2023-02-22T03:30:39.581Z,5.77
2023-02-22T03:33:15.027Z,5.79
2023-02-22T03:35:56.881Z,5.85
2023-02-22T03:38:29.023Z,5.87
2023-02-22T03:41:01.082Z,5.93
2023-02-22T03:43:50.601Z,5.96
2023-02-22T03:46:19.540Z,5.91
2023-02-22T03:49:03.452Z,5.85
2023-02-22T03:51:31.460Z,5.78
2023-02-22T03:53:59.440Z,5.79
2023-02-22T03:56:35.810Z,5.75
2023-02-22T03:59:09.466Z,5.79
2023-02-22T04:01:36.836Z,5.81
2023-02-22T04:04:05.445Z,5.84
2023-02-22T04:06:32.967Z,5.92
2023-02-22T04:09:02.218Z,5.99
2023-02-22T04:11:29.660Z,6.06
2023-02-22T04:13:57.228Z,6.07
2023-02-22T04:16:24.356Z,6.08
2023-02-22T04:18:51.835Z,6.09
2023-02-22T04:21:19.155Z,6.07
2023-02-22T04:23:46.512Z,6.02
2023-02-22T04:26:14.029Z,5.96
2023-02-22T04:28:41.074Z,5.91
2023-02-22T04:31:08.499Z,5.86
2023-02-22T04:33:36.054Z,5.85
2023-02-22T04:36:03.628Z,5.85
2023-02-22T04:38:31.851Z,5.89
2023-02-22T04:40:59.617Z,5.97
2023-02-22T04:43:27.196Z,5.94
2023-02-22T04:45:56.172Z,5.97
2023-02-22T04:48:23.515Z,6.06
2023-02-22T04:50:52.135Z,6.09
2023-02-22T04:53:19.518Z,6.24
2023-02-22T04:55:46.967Z,6.29
2023-02-22T04:58:14.135Z,6.28
2023-02-22T05:00:41.147Z,6.27
2023-02-22T05:03:09.501Z,6.29
2023-02-22T05:05:36.494Z,6.34
2023-02-22T05:08:03.635Z,6.45
2023-02-22T05:10:30.987Z,6.43
2023-02-22T05:12:58.052Z,6.45
2023-02-22T05:15:25.630Z,6.49
2023-02-22T05:17:53.309Z,6.52
2023-02-22T05:20:25.200Z,6.56
2023-02-22T05:22:52.653Z,6.61
2023-02-22T05:25:20.478Z,6.69
2023-02-22T05:27:57.330Z,6.63
2023-02-22T05:30:28.415Z,6.57
2023-02-22T05:32:55.676Z,6.59
2023-02-22T05:35:23.563Z,6.71
2023-02-22T05:37:51.729Z,6.72
2023-02-22T05:40:24.377Z,6.75
2023-02-22T05:42:53.034Z,6.83
2023-02-22T05:45:22.529Z,6.95
2023-02-22T05:47:50.308Z,7.04
2023-02-22T05:50:19.649Z,7.02
2023-02-22T05:52:48.752Z,7.19
2023-02-22T05:55:18.105Z,7.24
2023-02-22T05:57:45.681Z,7.16
2023-02-22T06:00:23.273Z,7.17
2023-02-22T06:03:09.912Z,7.28
2023-02-22T06:05:39.391Z,7.50
2023-02-22T06:08:07.727Z,7.50
2023-02-22T06:10:34.774Z,7.61
2023-02-22T06:13:03.316Z,7.52
2023-02-22T06:15:30.988Z,7.49
2023-02-22T06:17:58.918Z,7.50
2023-02-22T06:20:28.797Z,7.66
2023-02-22T06:22:58.532Z,7.92
2023-02-22T06:25:28.628Z,8.11
2023-02-22T06:27:55.991Z,8.22
2023-02-22T06:30:25.205Z,8.23
2023-02-22T06:32:52.706Z,8.30
2023-02-22T06:35:20.647Z,8.34
2023-02-22T06:37:48.205Z,8.35
2023-02-22T06:40:15.774Z,8.42
2023-02-22T06:42:43.126Z,8.38
2023-02-22T06:45:10.854Z,8.41
2023-02-22T06:47:41.589Z,8.31
2023-02-22T06:50:31.210Z,8.50
2023-02-22T06:52:58.845Z,8.39
2023-02-22T06:55:32.859Z,8.58
2023-02-22T06:58:01.073Z,8.66
2023-02-22T07:00:31.053Z,8.70
2023-02-22T07:02:59.608Z,8.72
2023-02-22T07:05:27.966Z,8.71
2023-02-22T07:08:02.829Z,8.63
2023-02-22T07:10:32.082Z,8.69
2023-02-22T07:12:59.900Z,8.77
2023-02-22T07:15:29.698Z,8.91
2023-02-22T07:17:57.077Z,9.04
2023-02-22T07:20:26.468Z,9.12
2023-02-22T07:22:53.754Z,9.22
2023-02-22T07:25:21.292Z,9.27
2023-02-22T07:27:48.812Z,9.20
2023-02-22T07:30:26.076Z,9.23
2023-02-22T07:32:55.219Z,9.24
2023-02-22T07:35:28.498Z,9.22
2023-02-22T07:37:56.251Z,9.10
2023-02-22T07:40:25.041Z,9.02
2023-02-22T07:43:00.727Z,9.10
2023-02-22T07:45:33.766Z,9.12
2023-02-22T07:48:03.765Z,9.23
2023-02-22T07:50:32.721Z,9.31
2023-02-22T07:53:03.542Z,9.29
2023-02-22T07:55:32.230Z,9.35
2023-02-22T07:58:01.858Z,9.46
2023-02-22T08:00:34.691Z,9.51
2023-02-22T08:03:04.607Z,9.65
2023-02-22T08:05:32.942Z,9.73
2023-02-22T08:08:00.357Z,10.13
2023-02-22T08:10:28.361Z,10.38
2023-02-22T08:12:56.046Z,10.43
2023-02-22T08:15:30.049Z,10.40
2023-02-22T08:17:58.068Z,10.47
2023-02-22T08:20:26.214Z,10.65
2023-02-22T08:22:54.456Z,10.75
2023-02-22T08:25:25.353Z,10.80
2023-02-22T08:27:52.712Z,10.89
2023-02-22T08:30:22.408Z,11.03
2023-02-22T08:32:50.651Z,11.08
2023-02-22T08:35:22.072Z,11.27
2023-02-22T08:37:52.343Z,11.58
2023-02-22T08:40:23.541Z,11.61
2023-02-22T08:42:50.940Z,11.75
2023-02-22T08:45:18.108Z,11.81
2023-02-22T08:47:45.121Z,12.04
2023-02-22T08:50:20.365Z,12.19
2023-02-22T08:52:47.565Z,12.30
2023-02-22T08:55:15.078Z,12.27
2023-02-22T08:57:42.110Z,12.40
2023-02-22T09:00:09.810Z,12.54
2023-02-22T09:02:37.105Z,12.74
2023-02-22T09:05:05.813Z,12.73
2023-02-22T09:07:32.968Z,12.56
2023-02-22T09:10:00.358Z,12.54
2023-02-22T09:12:27.374Z,12.53
2023-02-22T09:14:54.441Z,12.69
2023-02-22T09:17:21.785Z,12.90
2023-02-22T09:19:48.792Z,12.81
2023-02-22T09:22:15.860Z,12.64
2023-02-22T09:24:43.427Z,12.87
2023-02-22T09:27:12.189Z,12.89
2023-02-22T09:29:39.579Z,13.08
2023-02-22T09:32:07.219Z,13.11
2023-02-22T09:34:35.359Z,13.12
2023-02-22T09:37:02.529Z,13.05
2023-02-22T09:39:29.975Z,12.97
2023-02-22T09:42:15.945Z,12.78
2023-02-22T09:44:55.065Z,12.62
2023-02-22T09:47:32.513Z,12.68
2023-02-22T09:50:15.610Z,12.75
2023-02-22T09:52:55.559Z,12.90
2023-02-22T09:55:47.937Z,12.88
2023-02-22T09:58:33.435Z,13.08
2023-02-22T10:01:33.197Z,13.05
2023-02-22T10:04:20.048Z,12.88
2023-02-22T10:07:06.189Z,12.85
2023-02-22T10:09:38.359Z,12.88
2023-02-22T10:12:12.741Z,12.89
2023-02-22T10:15:05.334Z,12.88
2023-02-22T10:18:10.691Z,12.93
2023-02-22T10:20:42.570Z,13.00
2023-02-22T10:23:19.173Z,13.01
2023-02-22T10:25:52.554Z,13.15
2023-02-22T10:28:24.788Z,13.11
2023-02-22T10:30:59.073Z,13.22
2023-02-22T10:33:35.220Z,13.25
2023-02-22T10:36:03.256Z,13.23
2023-02-22T10:38:33.725Z,13.36
2023-02-22T10:41:09.971Z,13.28
2023-02-22T10:43:38.648Z,13.27
2023-02-22T10:46:08.193Z,13.29
2023-02-22T10:48:38.577Z,13.47
2023-02-22T10:51:08.673Z,13.67
2023-02-22T10:53:38.482Z,13.83
2023-02-22T10:56:21.569Z,13.77
2023-02-22T10:58:48.639Z,13.87
2023-02-22T11:01:22.167Z,13.95
2023-02-22T11:04:07.576Z,13.69
2023-02-22T11:06:35.572Z,13.60
2023-02-22T11:09:10.712Z,13.52
2023-02-22T11:11:41.212Z,13.42
2023-02-22T11:14:10.873Z,13.44
2023-02-22T11:16:52.482Z,13.44
2023-02-22T11:19:28.953Z,13.51
2023-02-22T11:22:10.503Z,13.74
2023-02-22T11:27:43.768Z,13.96
2023-02-22T11:30:35.471Z,14.05
2023-02-22T11:33:23.572Z,14.13
2023-02-22T11:35:54.294Z,14.11
2023-02-22T11:38:30.736Z,14.21
2023-02-22T11:41:29.355Z,14.23
2023-02-22T11:44:21.349Z,14.26
2023-02-22T11:46:49.032Z,14.11
2023-02-22T11:49:17.653Z,14.12
2023-02-22T11:51:56.994Z,14.12
2023-02-22T11:54:29.393Z,14.06
2023-02-22T11:57:16.432Z,14.13
2023-02-22T11:59:46.908Z,13.97
2023-02-22T12:02:18.482Z,13.93
2023-02-22T12:04:55.039Z,13.95
2023-02-22T12:07:34.831Z,13.92
2023-02-22T12:10:19.435Z,14.01
2023-02-22T12:12:55.573Z,14.12
2023-02-22T12:15:31.479Z,14.09
2023-02-22T12:18:15.567Z,14.06
2023-02-22T12:20:51.068Z,14.09
2023-02-22T12:23:30.064Z,14.05
2023-02-22T12:26:05.656Z,14.11
2023-02-22T12:28:39.148Z,13.99
2023-02-22T12:31:25.296Z,13.96
2023-02-22T12:34:04.903Z,13.83
2023-02-22T12:36:44.180Z,13.83
2023-02-22T12:39:50.744Z,13.73
2023-02-22T12:42:47.602Z,13.61
2023-02-22T12:45:41.465Z,13.25
2023-02-22T12:48:33.306Z,13.28
2023-02-22T12:51:16.104Z,13.27
2023-02-22T12:53:55.693Z,13.40
2023-02-22T12:56:36.411Z,13.22
2023-02-22T12:59:17.425Z,13.15
2023-02-22T13:01:50.532Z,13.19
2023-02-22T13:04:21.205Z,13.14
2023-02-22T13:07:19.233Z,13.02
2023-02-22T13:10:03.145Z,12.96
2023-02-22T13:12:55.373Z,12.93
2023-02-22T13:15:47.861Z,13.00
2023-02-22T13:18:29.590Z,13.03
2023-02-22T13:21:09.165Z,13.14
2023-02-22T13:24:12.505Z,13.07
2023-02-22T13:26:53.736Z,13.03
2023-02-22T13:29:30.104Z,12.94
2023-02-22T13:32:15.867Z,12.93
2023-02-22T13:35:02.508Z,12.91
2023-02-22T13:38:04.023Z,12.97
2023-02-22T13:40:52.864Z,12.88
2023-02-22T13:43:35.234Z,12.92
2023-02-22T13:46:33.753Z,12.80
2023-02-22T13:49:17.039Z,12.78
2023-02-22T13:51:58.982Z,12.67
2023-02-22T13:54:37.640Z,12.67
2023-02-22T13:57:19.082Z,12.57
2023-02-22T13:59:47.402Z,12.63
2023-02-22T14:02:55.822Z,12.58
2023-02-22T14:05:42.293Z,12.57
2023-02-22T14:08:31.622Z,12.56
2023-02-22T14:11:02.357Z,12.65
2023-02-22T14:13:33.253Z,12.81
2023-02-22T14:16:00.755Z,12.89
2023-02-22T14:18:38.026Z,12.93
2023-02-22T14:21:14.377Z,12.99
2023-02-22T14:23:44.948Z,12.74
2023-02-22T14:26:30.894Z,12.76
2023-02-22T14:28:59.513Z,12.77
2023-02-22T14:31:36.962Z,12.80
2023-02-22T14:34:04.710Z,12.89
2023-02-22T14:36:53.356Z,12.75
2023-02-22T14:39:43.887Z,12.71
2023-02-22T14:42:14.583Z,12.78
2023-02-22T14:45:03.019Z,12.73
2023-02-22T14:47:39.949Z,12.67
2023-02-22T14:50:17.878Z,12.66
2023-02-22T14:52:48.704Z,12.67
2023-02-22T14:55:22.068Z,12.64
2023-02-22T14:58:46.069Z,12.53
2023-02-22T15:01:49.125Z,12.56
2023-02-22T15:04:31.231Z,12.48
2023-02-22T15:07:01.113Z,12.44
2023-02-22T15:09:34.864Z,12.46
2023-02-22T15:12:05.260Z,12.26
2023-02-22T15:14:38.997Z,12.29
2023-02-22T15:17:22.505Z,12.17
2023-02-22T15:19:50.172Z,12.16
2023-02-22T15:22:27.116Z,12.10
2023-02-22T15:25:03.538Z,12.14
2023-02-22T15:27:34.574Z,12.10
2023-02-22T15:30:06.238Z,12.02
2023-02-22T15:32:36.248Z,11.96
2023-02-22T15:35:23.403Z,12.04
2023-02-22T15:38:01.123Z,12.06
2023-02-22T15:40:33.357Z,12.06
2023-02-22T15:43:08.941Z,11.94
2023-02-22T15:45:42.949Z,11.76
2023-02-22T15:48:11.712Z,11.72
2023-02-22T15:50:39.295Z,11.74
2023-02-22T15:53:23.835Z,11.76
2023-02-22T15:56:00.060Z,11.64
2023-02-22T15:58:30.058Z,11.61
2023-02-22T16:01:07.189Z,11.55
2023-02-22T16:03:51.482Z,11.46
2023-02-22T16:06:30.508Z,11.44
2023-02-22T16:09:01.087Z,11.38
2023-02-22T16:11:34.333Z,11.35
2023-02-22T16:14:05.172Z,11.32
2023-02-22T16:16:35.984Z,11.38
2023-02-22T16:19:28.066Z,11.34
2023-02-22T16:22:02.959Z,11.31
2023-02-22T16:24:33.405Z,11.28
2023-02-22T16:27:17.771Z,11.18
2023-02-22T16:30:02.402Z,11.11
2023-02-22T16:32:30.444Z,11.08
2023-02-22T16:34:57.940Z,11.05
2023-02-22T16:37:25.166Z,11.01
2023-02-22T16:39:52.364Z,10.95
2023-02-22T16:42:24.148Z,10.90
2023-02-22T16:44:52.386Z,10.84
2023-02-22T16:47:20.455Z,10.79
2023-02-22T16:49:52.870Z,10.74
2023-02-22T16:52:20.672Z,10.69
2023-02-22T16:54:48.495Z,10.69
2023-02-22T16:57:21.922Z,10.66
2023-02-22T16:59:52.212Z,10.66
2023-02-22T17:02:20.465Z,10.63
2023-02-22T17:04:49.524Z,10.61
2023-02-22T17:07:29.881Z,10.56
2023-02-22T17:10:00.761Z,10.54
2023-02-22T17:12:30.124Z,10.51
2023-02-22T17:14:57.711Z,10.46
2023-02-22T17:17:26.463Z,10.43
2023-02-22T17:19:54.986Z,10.39
2023-02-22T17:22:22.762Z,10.32
2023-02-22T17:24:49.889Z,10.28
2023-02-22T17:27:17.336Z,10.24
2023-02-22T17:29:45.206Z,10.22
2023-02-22T17:32:13.048Z,10.19
2023-02-22T17:34:40.762Z,10.14
2023-02-22T17:37:08.113Z,10.10
2023-02-22T17:39:35.428Z,10.08
2023-02-22T17:42:03.035Z,10.07
2023-02-22T17:44:30.233Z,10.02
2023-02-22T17:46:57.356Z,9.98
2023-02-22T17:49:24.807Z,9.96
2023-02-22T17:51:53.210Z,9.95
2023-02-22T17:54:20.649Z,9.94
2023-02-22T17:56:48.098Z,9.90
2023-02-22T17:59:15.306Z,9.88
2023-02-22T18:01:44.031Z,9.85
2023-02-22T18:04:11.796Z,9.85
2023-02-22T18:06:40.060Z,9.91
2023-02-22T18:09:10.396Z,9.88
2023-02-22T18:11:39.533Z,9.83
2023-02-22T18:14:10.119Z,9.80
2023-02-22T18:16:39.360Z,9.77
2023-02-22T18:19:06.877Z,9.72
2023-02-22T18:21:34.077Z,9.67
2023-02-22T18:24:02.057Z,9.62
2023-02-22T18:26:29.690Z,9.58
2023-02-22T18:28:56.973Z,9.55
2023-02-22T18:31:24.435Z,9.51
2023-02-22T18:33:52.721Z,9.46
2023-02-22T18:36:23.587Z,9.47
2023-02-22T18:38:53.422Z,9.46
2023-02-22T18:41:25.284Z,9.43
2023-02-22T18:43:55.402Z,9.39
2023-02-22T18:46:24.408Z,9.37
2023-02-22T18:48:54.532Z,9.37
2023-02-22T18:51:22.308Z,9.38
2023-02-22T18:53:57.060Z,9.45
2023-02-22T18:56:29.606Z,9.49
2023-02-22T18:58:59.208Z,9.37
2023-02-22T19:01:27.289Z,9.37
2023-02-22T19:03:55.528Z,9.52
2023-02-22T19:06:23.058Z,9.67
2023-02-22T19:08:50.955Z,9.67
2023-02-22T19:11:21.902Z,9.83
2023-02-22T19:13:54.399Z,9.83
2023-02-22T19:16:24.469Z,9.68
2023-02-22T19:18:57.096Z,9.66
2023-02-22T19:21:26.958Z,9.74
2023-02-22T19:24:00.961Z,9.66
2023-02-22T19:26:29.425Z,9.55
2023-02-22T19:28:58.696Z,9.51
2023-02-22T19:31:33.510Z,9.50
2023-02-22T19:34:04.705Z,9.37
2023-02-22T19:36:32.426Z,9.33
2023-02-22T19:39:02.621Z,9.30
2023-02-22T19:41:31.208Z,9.36
2023-02-22T19:43:59.003Z,9.36
2023-02-22T19:46:26.101Z,9.44
2023-02-22T19:48:55.300Z,9.31
2023-02-22T19:51:27.808Z,9.38
2023-02-22T19:54:00.448Z,9.31
2023-02-22T19:56:28.227Z,9.31
2023-02-22T19:58:57.500Z,9.18
2023-02-22T20:01:30.404Z,9.10
2023-02-22T20:04:00.639Z,8.97
2023-02-22T20:06:31.320Z,8.90
2023-02-22T20:08:58.694Z,8.89
2023-02-22T20:11:26.662Z,8.83
2023-02-22T20:13:57.249Z,8.83
2023-02-22T20:16:24.688Z,8.89
2023-02-22T20:18:52.174Z,8.85
2023-02-22T20:21:23.869Z,8.87
2023-02-22T20:23:51.597Z,8.78
2023-02-22T20:26:24.954Z,8.75
2023-02-22T20:28:53.343Z,8.74
2023-02-22T20:31:21.369Z,8.82
2023-02-22T20:33:53.156Z,8.75
2023-02-22T20:36:23.364Z,8.68
2023-02-22T20:38:58.750Z,8.77
2023-02-22T20:41:32.358Z,8.72
2023-02-22T20:44:01.454Z,8.66
2023-02-22T20:46:31.680Z,8.55
2023-02-22T20:49:01.100Z,8.64
2023-02-22T20:51:29.568Z,8.67
2023-02-22T20:54:01.073Z,8.62
2023-02-22T20:56:30.853Z,8.57
2023-02-22T20:59:02.906Z,8.60
2023-02-22T21:01:31.080Z,8.60
2023-02-22T21:04:02.836Z,8.65
2023-02-22T21:06:30.993Z,8.65
2023-02-22T21:09:00.246Z,8.64
2023-02-22T21:11:30.404Z,8.58
2023-02-22T21:13:58.145Z,8.73
2023-02-22T21:16:35.532Z,8.57
2023-02-22T21:19:07.019Z,8.55
2023-02-22T21:21:35.408Z,8.53
2023-02-22T21:24:02.532Z,8.53
2023-02-22T21:26:34.004Z,8.47
2023-02-22T21:29:04.941Z,8.48
2023-02-22T21:31:34.026Z,8.45
2023-02-22T21:34:01.997Z,8.50
2023-02-22T21:36:29.541Z,8.42
2023-02-22T21:39:01.622Z,8.49
2023-02-22T21:41:31.133Z,8.58
2023-02-22T21:43:59.590Z,8.65
2023-02-22T21:46:31.437Z,8.58
2023-02-22T21:48:59.143Z,8.51
2023-02-22T21:51:31.795Z,8.60
2023-02-22T21:54:02.047Z,8.53
2023-02-22T21:56:32.365Z,8.46
2023-02-22T21:59:06.176Z,8.51
2023-02-22T22:01:36.774Z,8.46
2023-02-22T22:04:05.057Z,8.36
2023-02-22T22:06:34.615Z,8.42
2023-02-22T22:09:04.949Z,8.47
2023-02-22T22:11:32.515Z,8.43
2023-02-22T22:14:00.458Z,8.35
2023-02-22T22:16:29.816Z,8.20
2023-02-22T22:18:57.749Z,8.26
2023-02-22T22:21:25.049Z,8.20
2023-02-22T22:23:56.689Z,8.11
2023-02-22T22:26:25.387Z,8.06
2023-02-22T22:28:55.844Z,8.12
2023-02-22T22:31:26.010Z,8.18
2023-02-22T22:33:54.831Z,8.08
2023-02-22T22:36:23.279Z,8.23
2023-02-22T22:38:52.680Z,8.28
2023-02-22T22:41:21.850Z,8.18
2023-02-22T22:43:48.962Z,8.09
2023-02-22T22:46:17.927Z,8.14
2023-02-22T22:48:47.007Z,8.10
2023-02-22T22:51:18.568Z,8.15
2023-02-22T22:53:48.059Z,8.04
2023-02-22T22:56:21.716Z,7.98
2023-02-22T22:58:56.917Z,7.95
2023-02-22T23:01:33.051Z,7.95
2023-02-22T23:04:03.373Z,7.87
2023-02-22T23:06:33.389Z,7.94
2023-02-22T23:09:11.396Z,8.00
2023-02-22T23:11:45.082Z,7.98
2023-02-22T23:14:19.533Z,8.01
2023-02-22T23:16:51.368Z,7.99
2023-02-22T23:19:19.666Z,7.94
2023-02-22T23:21:48.929Z,7.96
2023-02-22T23:24:19.396Z,7.91
2023-02-22T23:26:50.676Z,7.96
2023-02-22T23:29:20.561Z,7.96
2023-02-22T23:31:49.557Z,7.99
2023-02-22T23:34:18.816Z,7.93
2023-02-22T23:36:46.756Z,7.92
2023-02-22T23:39:16.021Z,7.89
2023-02-22T23:41:43.236Z,7.95
2023-02-22T23:44:13.591Z,8.02
2023-02-22T23:46:41.214Z,8.00
2023-02-22T23:49:09.935Z,7.99
2023-02-22T23:51:44.494Z,7.87
2023-02-22T23:54:14.891Z,7.88
2023-02-22T23:56:56.752Z,7.88
2023-02-22T23:59:26.276Z,7.98
